sensor_id;sensor_type;location;lat;lon;timestamp;P1;durP1;ratioP1;P2;durP2;ratioP2
15317;SDS011;7759;52.528;13.346;2022-07-23T00:00:56;3.80;;;3.50;;
15317;SDS011;7759;52.528;13.346;2022-07-23T00:03:22;4.00;;;3.17;;
15317;SDS011;7759;52.528;13.346;2022-07-23T00:05:48;4.50;;;3.30;;
15317;SDS011;7759;52.528;13.346;2022-07-23T00:08:14;3.25;;;2.95;;
15317;SDS011;7759;52.528;13.346;2022-07-23T00:10:40;4.43;;;3.22;;
15317;SDS011;7759;52.528;13.346;2022-07-23T00:13:06;4.10;;;3.70;;
15317;SDS011;7759;52.528;13.346;2022-07-23T00:15:32;4.47;;;2.95;;
15317;SDS011;7759;52.528;13.346;2022-07-23T00:17:58;4.85;;;3.13;;
15317;SDS011;7759;52.528;13.346;2022-07-23T00:20:24;5.25;;;3.22;;
15317;SDS011;7759;52.528;13.346;2022-07-23T00:22:50;4.32;;;3.53;;
15317;SDS011;7759;52.528;13.346;2022-07-23T00:25:16;5.55;;;3.60;;
15317;SDS011;7759;52.528;13.346;2022-07-23T00:27:42;5.63;;;3.22;;
15317;SDS011;7759;52.528;13.346;2022-07-23T00:30:08;4.10;;;2.83;;
15317;SDS011;7759;52.528;13.346;2022-07-23T00:32:48;3.25;;;2.63;;
15317;SDS011;7759;52.528;13.346;2022-07-23T00:35:14;3.67;;;3.05;;
15317;SDS011;7759;52.528;13.346;2022-07-23T00:37:40;3.70;;;2.90;;
15317;SDS011;7759;52.528;13.346;2022-07-23T00:40:06;3.35;;;2.85;;
15317;SDS011;7759;52.528;13.346;2022-07-23T00:42:32;4.07;;;3.10;;
15317;SDS011;7759;52.528;13.346;2022-07-23T00:44:58;4.03;;;3.20;;
15317;SDS011;7759;52.528;13.346;2022-07-23T00:47:24;3.03;;;2.72;;
15317;SDS011;7759;52.528;13.346;2022-07-23T00:49:50;4.22;;;3.03;;
15317;SDS011;7759;52.528;13.346;2022-07-23T00:52:16;4.00;;;3.00;;
15317;SDS011;7759;52.528;13.346;2022-07-23T00:54:42;6.70;;;3.33;;
15317;SDS011;7759;52.528;13.346;2022-07-23T00:57:08;4.80;;;3.15;;
15317;SDS011;7759;52.528;13.346;2022-07-23T00:59:34;4.28;;;3.45;;
15317;SDS011;7759;52.528;13.346;2022-07-23T01:02:00;6.32;;;3.65;;
15317;SDS011;7759;52.528;13.346;2022-07-23T01:04:26;3.65;;;3.10;;
15317;SDS011;7759;52.528;13.346;2022-07-23T01:06:52;2.85;;;2.53;;
15317;SDS011;7759;52.528;13.346;2022-07-23T01:09:18;3.22;;;2.92;;
15317;SDS011;7759;52.528;13.346;2022-07-23T01:11:44;4.45;;;2.72;;
15317;SDS011;7759;52.528;13.346;2022-07-23T01:14:10;3.95;;;2.72;;
15317;SDS011;7759;52.528;13.346;2022-07-23T01:16:36;3.40;;;3.10;;
15317;SDS011;7759;52.528;13.346;2022-07-23T01:19:02;3.25;;;2.70;;
15317;SDS011;7759;52.528;13.346;2022-07-23T01:21:31;3.35;;;2.90;;
15317;SDS011;7759;52.528;13.346;2022-07-23T01:23:57;4.20;;;3.80;;
15317;SDS011;7759;52.528;13.346;2022-07-23T01:26:23;5.82;;;3.25;;
15317;SDS011;7759;52.528;13.346;2022-07-23T01:28:49;5.10;;;3.35;;
15317;SDS011;7759;52.528;13.346;2022-07-23T01:31:15;3.85;;;2.90;;
15317;SDS011;7759;52.528;13.346;2022-07-23T01:33:42;4.68;;;2.60;;
15317;SDS011;7759;52.528;13.346;2022-07-23T01:36:08;4.25;;;3.17;;
15317;SDS011;7759;52.528;13.346;2022-07-23T01:38:34;3.58;;;2.67;;
15317;SDS011;7759;52.528;13.346;2022-07-23T01:41:00;3.88;;;3.47;;
15317;SDS011;7759;52.528;13.346;2022-07-23T01:43:26;4.15;;;3.15;;
15317;SDS011;7759;52.528;13.346;2022-07-23T01:45:51;2.92;;;2.70;;
15317;SDS011;7759;52.528;13.346;2022-07-23T01:48:17;4.35;;;2.90;;
15317;SDS011;7759;52.528;13.346;2022-07-23T01:50:43;4.78;;;3.50;;
15317;SDS011;7759;52.528;13.346;2022-07-23T01:53:11;2.70;;;2.45;;
15317;SDS011;7759;52.528;13.346;2022-07-23T01:55:37;4.32;;;3.08;;
15317;SDS011;7759;52.528;13.346;2022-07-23T01:58:03;3.80;;;3.00;;
15317;SDS011;7759;52.528;13.346;2022-07-23T02:00:30;3.67;;;2.67;;
15317;SDS011;7759;52.528;13.346;2022-07-23T02:02:56;3.20;;;2.90;;
15317;SDS011;7759;52.528;13.346;2022-07-23T02:05:23;3.88;;;2.85;;
15317;SDS011;7759;52.528;13.346;2022-07-23T02:07:49;3.85;;;3.25;;
15317;SDS011;7759;52.528;13.346;2022-07-23T02:10:15;6.93;;;3.88;;
15317;SDS011;7759;52.528;13.346;2022-07-23T02:12:41;4.68;;;3.25;;
15317;SDS011;7759;52.528;13.346;2022-07-23T02:15:07;4.75;;;3.35;;
15317;SDS011;7759;52.528;13.346;2022-07-23T02:17:33;2.95;;;2.65;;
15317;SDS011;7759;52.528;13.346;2022-07-23T02:19:59;5.43;;;3.38;;
15317;SDS011;7759;52.528;13.346;2022-07-23T02:22:25;3.97;;;2.90;;
15317;SDS011;7759;52.528;13.346;2022-07-23T02:24:51;3.85;;;3.15;;
15317;SDS011;7759;52.528;13.346;2022-07-23T02:27:17;4.55;;;3.13;;
15317;SDS011;7759;52.528;13.346;2022-07-23T02:29:43;5.60;;;3.05;;
15317;SDS011;7759;52.528;13.346;2022-07-23T02:32:09;4.85;;;3.00;;
15317;SDS011;7759;52.528;13.346;2022-07-23T02:34:34;3.70;;;3.17;;
15317;SDS011;7759;52.528;13.346;2022-07-23T02:37:00;3.65;;;2.80;;
15317;SDS011;7759;52.528;13.346;2022-07-23T02:39:27;5.15;;;3.08;;
15317;SDS011;7759;52.528;13.346;2022-07-23T02:41:53;4.07;;;3.00;;
15317;SDS011;7759;52.528;13.346;2022-07-23T02:44:19;3.55;;;2.83;;
15317;SDS011;7759;52.528;13.346;2022-07-23T02:46:44;3.85;;;2.70;;
15317;SDS011;7759;52.528;13.346;2022-07-23T02:49:10;6.05;;;4.10;;
15317;SDS011;7759;52.528;13.346;2022-07-23T02:51:36;7.32;;;3.15;;
15317;SDS011;7759;52.528;13.346;2022-07-23T02:54:02;7.95;;;3.03;;
15317;SDS011;7759;52.528;13.346;2022-07-23T02:56:29;8.80;;;3.72;;
15317;SDS011;7759;52.528;13.346;2022-07-23T02:58:55;6.43;;;3.50;;
15317;SDS011;7759;52.528;13.346;2022-07-23T03:01:21;3.65;;;2.97;;
15317;SDS011;7759;52.528;13.346;2022-07-23T03:03:47;5.63;;;3.65;;
15317;SDS011;7759;52.528;13.346;2022-07-23T03:06:13;4.45;;;3.20;;
15317;SDS011;7759;52.528;13.346;2022-07-23T03:08:39;4.88;;;3.42;;
15317;SDS011;7759;52.528;13.346;2022-07-23T03:11:05;6.03;;;3.42;;
15317;SDS011;7759;52.528;13.346;2022-07-23T03:13:35;5.78;;;3.33;;
15317;SDS011;7759;52.528;13.346;2022-07-23T03:16:01;6.10;;;3.17;;
15317;SDS011;7759;52.528;13.346;2022-07-23T03:18:28;4.97;;;3.05;;
15317;SDS011;7759;52.528;13.346;2022-07-23T03:20:54;4.93;;;3.38;;
15317;SDS011;7759;52.528;13.346;2022-07-23T03:23:20;7.78;;;3.00;;
15317;SDS011;7759;52.528;13.346;2022-07-23T03:25:46;4.43;;;2.65;;
15317;SDS011;7759;52.528;13.346;2022-07-23T03:28:13;3.85;;;2.85;;
15317;SDS011;7759;52.528;13.346;2022-07-23T03:30:40;3.20;;;2.90;;
15317;SDS011;7759;52.528;13.346;2022-07-23T03:33:06;2.70;;;2.30;;
15317;SDS011;7759;52.528;13.346;2022-07-23T03:35:32;5.40;;;3.22;;
15317;SDS011;7759;52.528;13.346;2022-07-23T03:37:58;6.43;;;2.67;;
15317;SDS011;7759;52.528;13.346;2022-07-23T03:40:24;3.03;;;2.03;;
15317;SDS011;7759;52.528;13.346;2022-07-23T03:42:50;6.28;;;2.55;;
15317;SDS011;7759;52.528;13.346;2022-07-23T03:45:15;2.72;;;2.30;;
15317;SDS011;7759;52.528;13.346;2022-07-23T03:47:41;3.00;;;2.20;;
15317;SDS011;7759;52.528;13.346;2022-07-23T03:50:09;2.53;;;1.80;;
15317;SDS011;7759;52.528;13.346;2022-07-23T03:52:35;3.53;;;2.05;;
15317;SDS011;7759;52.528;13.346;2022-07-23T03:55:01;4.03;;;1.88;;
15317;SDS011;7759;52.528;13.346;2022-07-23T03:57:27;2.53;;;1.80;;
15317;SDS011;7759;52.528;13.346;2022-07-23T03:59:53;3.00;;;2.08;;
15317;SDS011;7759;52.528;13.346;2022-07-23T04:02:18;3.92;;;2.15;;
15317;SDS011;7759;52.528;13.346;2022-07-23T04:04:44;3.30;;;1.52;;
15317;SDS011;7759;52.528;13.346;2022-07-23T04:07:11;5.55;;;2.03;;
15317;SDS011;7759;52.528;13.346;2022-07-23T04:09:37;4.25;;;1.83;;
15317;SDS011;7759;52.528;13.346;2022-07-23T04:12:05;5.65;;;1.92;;
15317;SDS011;7759;52.528;13.346;2022-07-23T04:14:31;3.22;;;1.70;;
15317;SDS011;7759;52.528;13.346;2022-07-23T04:16:57;3.40;;;1.33;;
15317;SDS011;7759;52.528;13.346;2022-07-23T04:19:23;4.90;;;1.42;;
15317;SDS011;7759;52.528;13.346;2022-07-23T04:21:49;1.58;;;1.48;;
15317;SDS011;7759;52.528;13.346;2022-07-23T04:24:15;3.92;;;1.95;;
15317;SDS011;7759;52.528;13.346;2022-07-23T04:26:41;1.60;;;1.25;;
15317;SDS011;7759;52.528;13.346;2022-07-23T04:29:07;2.53;;;1.50;;
15317;SDS011;7759;52.528;13.346;2022-07-23T04:31:33;4.97;;;1.55;;
15317;SDS011;7759;52.528;13.346;2022-07-23T04:33:59;4.95;;;1.42;;
15317;SDS011;7759;52.528;13.346;2022-07-23T04:36:25;5.72;;;1.63;;
15317;SDS011;7759;52.528;13.346;2022-07-23T04:38:50;3.45;;;1.67;;
15317;SDS011;7759;52.528;13.346;2022-07-23T04:41:16;1.52;;;1.42;;
15317;SDS011;7759;52.528;13.346;2022-07-23T04:43:42;3.50;;;1.58;;
15317;SDS011;7759;52.528;13.346;2022-07-23T04:46:08;3.25;;;1.30;;
15317;SDS011;7759;52.528;13.346;2022-07-23T04:48:35;2.00;;;1.40;;
15317;SDS011;7759;52.528;13.346;2022-07-23T04:51:01;4.28;;;1.75;;
15317;SDS011;7759;52.528;13.346;2022-07-23T04:53:27;3.08;;;1.58;;
15317;SDS011;7759;52.528;13.346;2022-07-23T04:55:53;4.07;;;1.70;;
15317;SDS011;7759;52.528;13.346;2022-07-23T04:58:19;4.72;;;1.80;;
15317;SDS011;7759;52.528;13.346;2022-07-23T05:00:45;1.85;;;1.25;;
15317;SDS011;7759;52.528;13.346;2022-07-23T05:03:11;2.88;;;1.80;;
15317;SDS011;7759;52.528;13.346;2022-07-23T05:05:37;6.47;;;1.27;;
15317;SDS011;7759;52.528;13.346;2022-07-23T05:08:03;2.83;;;1.50;;
15317;SDS011;7759;52.528;13.346;2022-07-23T05:10:29;2.25;;;1.23;;
15317;SDS011;7759;52.528;13.346;2022-07-23T05:12:55;1.98;;;1.50;;
15317;SDS011;7759;52.528;13.346;2022-07-23T05:15:21;4.82;;;1.80;;
15317;SDS011;7759;52.528;13.346;2022-07-23T05:17:47;4.10;;;1.65;;
15317;SDS011;7759;52.528;13.346;2022-07-23T05:20:13;1.80;;;1.38;;
15317;SDS011;7759;52.528;13.346;2022-07-23T05:22:39;1.65;;;1.20;;
15317;SDS011;7759;52.528;13.346;2022-07-23T05:25:05;2.45;;;1.50;;
15317;SDS011;7759;52.528;13.346;2022-07-23T05:27:31;3.05;;;1.40;;
15317;SDS011;7759;52.528;13.346;2022-07-23T05:29:57;3.83;;;1.40;;
15317;SDS011;7759;52.528;13.346;2022-07-23T05:32:23;6.00;;;1.83;;
15317;SDS011;7759;52.528;13.346;2022-07-23T05:34:49;2.58;;;1.25;;
15317;SDS011;7759;52.528;13.346;2022-07-23T05:37:15;3.03;;;1.60;;
15317;SDS011;7759;52.528;13.346;2022-07-23T05:39:41;3.58;;;1.80;;
15317;SDS011;7759;52.528;13.346;2022-07-23T05:42:07;2.75;;;1.77;;
15317;SDS011;7759;52.528;13.346;2022-07-23T05:44:33;6.88;;;2.30;;
15317;SDS011;7759;52.528;13.346;2022-07-23T05:46:59;3.45;;;1.67;;
15317;SDS011;7759;52.528;13.346;2022-07-23T05:49:25;3.08;;;1.80;;
15317;SDS011;7759;52.528;13.346;2022-07-23T05:51:51;3.08;;;1.95;;
15317;SDS011;7759;52.528;13.346;2022-07-23T05:54:17;3.10;;;1.70;;
15317;SDS011;7759;52.528;13.346;2022-07-23T05:56:43;3.15;;;1.38;;
15317;SDS011;7759;52.528;13.346;2022-07-23T05:59:08;2.90;;;1.40;;
15317;SDS011;7759;52.528;13.346;2022-07-23T06:01:36;5.80;;;1.90;;
15317;SDS011;7759;52.528;13.346;2022-07-23T06:04:02;2.08;;;1.85;;
15317;SDS011;7759;52.528;13.346;2022-07-23T06:06:28;1.90;;;1.45;;
15317;SDS011;7759;52.528;13.346;2022-07-23T06:08:54;2.13;;;1.45;;
15317;SDS011;7759;52.528;13.346;2022-07-23T06:11:20;5.32;;;1.90;;
15317;SDS011;7759;52.528;13.346;2022-07-23T06:13:46;5.25;;;2.25;;
15317;SDS011;7759;52.528;13.346;2022-07-23T06:16:12;4.85;;;1.73;;
15317;SDS011;7759;52.528;13.346;2022-07-23T06:18:38;3.08;;;1.73;;
15317;SDS011;7759;52.528;13.346;2022-07-23T06:21:04;2.85;;;1.70;;
15317;SDS011;7759;52.528;13.346;2022-07-23T06:23:30;1.90;;;1.80;;
15317;SDS011;7759;52.528;13.346;2022-07-23T06:25:56;6.18;;;1.67;;
15317;SDS011;7759;52.528;13.346;2022-07-23T06:28:21;4.53;;;1.90;;
15317;SDS011;7759;52.528;13.346;2022-07-23T06:30:47;2.00;;;1.80;;
15317;SDS011;7759;52.528;13.346;2022-07-23T06:33:13;4.03;;;1.92;;
15317;SDS011;7759;52.528;13.346;2022-07-23T06:35:39;3.83;;;1.75;;
15317;SDS011;7759;52.528;13.346;2022-07-23T06:38:05;4.82;;;1.58;;
15317;SDS011;7759;52.528;13.346;2022-07-23T06:40:31;2.40;;;1.80;;
15317;SDS011;7759;52.528;13.346;2022-07-23T06:42:57;2.67;;;1.50;;
15317;SDS011;7759;52.528;13.346;2022-07-23T06:45:23;3.13;;;1.60;;
15317;SDS011;7759;52.528;13.346;2022-07-23T06:47:49;2.58;;;1.83;;
15317;SDS011;7759;52.528;13.346;2022-07-23T06:50:15;3.15;;;1.70;;
15317;SDS011;7759;52.528;13.346;2022-07-23T06:52:41;6.40;;;2.70;;
15317;SDS011;7759;52.528;13.346;2022-07-23T06:55:06;4.13;;;2.20;;
15317;SDS011;7759;52.528;13.346;2022-07-23T06:57:32;4.78;;;1.85;;
15317;SDS011;7759;52.528;13.346;2022-07-23T06:59:58;3.40;;;1.98;;
15317;SDS011;7759;52.528;13.346;2022-07-23T07:02:24;1.90;;;1.73;;
15317;SDS011;7759;52.528;13.346;2022-07-23T07:04:50;3.88;;;2.00;;
15317;SDS011;7759;52.528;13.346;2022-07-23T07:07:17;3.20;;;1.80;;
15317;SDS011;7759;52.528;13.346;2022-07-23T07:09:43;3.40;;;1.98;;
15317;SDS011;7759;52.528;13.346;2022-07-23T07:12:09;2.97;;;1.98;;
15317;SDS011;7759;52.528;13.346;2022-07-23T07:14:36;4.22;;;1.90;;
15317;SDS011;7759;52.528;13.346;2022-07-23T07:17:02;4.13;;;2.00;;
15317;SDS011;7759;52.528;13.346;2022-07-23T07:19:28;3.58;;;1.98;;
15317;SDS011;7759;52.528;13.346;2022-07-23T07:21:54;2.72;;;1.67;;
15317;SDS011;7759;52.528;13.346;2022-07-23T07:24:20;4.63;;;2.25;;
15317;SDS011;7759;52.528;13.346;2022-07-23T07:26:46;3.38;;;2.13;;
15317;SDS011;7759;52.528;13.346;2022-07-23T07:29:12;2.97;;;2.40;;
15317;SDS011;7759;52.528;13.346;2022-07-23T07:31:38;3.92;;;2.72;;
15317;SDS011;7759;52.528;13.346;2022-07-23T07:34:04;2.83;;;1.58;;
15317;SDS011;7759;52.528;13.346;2022-07-23T07:36:30;3.38;;;1.73;;
15317;SDS011;7759;52.528;13.346;2022-07-23T07:38:56;2.58;;;2.22;;
15317;SDS011;7759;52.528;13.346;2022-07-23T07:41:21;4.90;;;2.47;;
15317;SDS011;7759;52.528;13.346;2022-07-23T07:43:49;2.35;;;2.10;;
15317;SDS011;7759;52.528;13.346;2022-07-23T07:46:15;2.80;;;1.70;;
15317;SDS011;7759;52.528;13.346;2022-07-23T07:48:41;4.18;;;2.42;;
15317;SDS011;7759;52.528;13.346;2022-07-23T07:51:07;4.40;;;2.00;;
15317;SDS011;7759;52.528;13.346;2022-07-23T07:53:33;6.75;;;2.42;;
15317;SDS011;7759;52.528;13.346;2022-07-23T07:55:59;3.08;;;1.90;;
15317;SDS011;7759;52.528;13.346;2022-07-23T07:58:25;4.15;;;2.08;;
15317;SDS011;7759;52.528;13.346;2022-07-23T08:00:51;4.63;;;2.00;;
15317;SDS011;7759;52.528;13.346;2022-07-23T08:03:16;3.10;;;2.05;;
15317;SDS011;7759;52.528;13.346;2022-07-23T08:05:42;4.07;;;2.10;;
15317;SDS011;7759;52.528;13.346;2022-07-23T08:08:08;6.05;;;1.92;;
15317;SDS011;7759;52.528;13.346;2022-07-23T08:10:39;2.28;;;2.08;;
15317;SDS011;7759;52.528;13.346;2022-07-23T08:13:05;2.53;;;1.80;;
15317;SDS011;7759;52.528;13.346;2022-07-23T08:15:31;4.57;;;2.47;;
15317;SDS011;7759;52.528;13.346;2022-07-23T08:17:57;3.60;;;1.65;;
15317;SDS011;7759;52.528;13.346;2022-07-23T08:20:24;4.85;;;1.83;;
15317;SDS011;7759;52.528;13.346;2022-07-23T08:25:16;5.07;;;2.25;;
15317;SDS011;7759;52.528;13.346;2022-07-23T08:27:42;2.92;;;1.40;;
15317;SDS011;7759;52.528;13.346;2022-07-23T08:30:08;3.25;;;1.52;;
15317;SDS011;7759;52.528;13.346;2022-07-23T08:32:47;3.03;;;1.83;;
15317;SDS011;7759;52.528;13.346;2022-07-23T08:35:13;2.55;;;1.58;;
15317;SDS011;7759;52.528;13.346;2022-07-23T08:37:39;3.10;;;1.58;;
15317;SDS011;7759;52.528;13.346;2022-07-23T08:40:05;1.50;;;1.40;;
15317;SDS011;7759;52.528;13.346;2022-07-23T08:42:31;2.58;;;1.30;;
15317;SDS011;7759;52.528;13.346;2022-07-23T08:45:00;1.55;;;1.23;;
15317;SDS011;7759;52.528;13.346;2022-07-23T08:47:26;3.05;;;1.67;;
15317;SDS011;7759;52.528;13.346;2022-07-23T08:49:52;1.67;;;1.58;;
15317;SDS011;7759;52.528;13.346;2022-07-23T08:52:18;2.00;;;1.35;;
15317;SDS011;7759;52.528;13.346;2022-07-23T08:54:44;3.63;;;2.03;;
15317;SDS011;7759;52.528;13.346;2022-07-23T08:57:10;3.47;;;1.80;;
15317;SDS011;7759;52.528;13.346;2022-07-23T08:59:35;4.30;;;2.05;;
15317;SDS011;7759;52.528;13.346;2022-07-23T09:02:01;4.18;;;1.88;;
15317;SDS011;7759;52.528;13.346;2022-07-23T09:04:27;2.85;;;1.30;;
15317;SDS011;7759;52.528;13.346;2022-07-23T09:06:53;3.67;;;1.60;;
15317;SDS011;7759;52.528;13.346;2022-07-23T09:09:20;3.47;;;1.60;;
15317;SDS011;7759;52.528;13.346;2022-07-23T09:11:47;2.80;;;1.50;;
15317;SDS011;7759;52.528;13.346;2022-07-23T09:14:12;2.15;;;1.50;;
15317;SDS011;7759;52.528;13.346;2022-07-23T09:16:39;1.45;;;1.30;;
15317;SDS011;7759;52.528;13.346;2022-07-23T09:19:05;3.22;;;1.20;;
15317;SDS011;7759;52.528;13.346;2022-07-23T09:21:32;3.50;;;1.75;;
15317;SDS011;7759;52.528;13.346;2022-07-23T09:24:02;3.70;;;1.77;;
15317;SDS011;7759;52.528;13.346;2022-07-23T09:26:30;1.88;;;1.48;;
15317;SDS011;7759;52.528;13.346;2022-07-23T09:31:43;3.67;;;1.80;;
15317;SDS011;7759;52.528;13.346;2022-07-23T09:34:10;2.50;;;1.67;;
15317;SDS011;7759;52.528;13.346;2022-07-23T09:36:36;2.78;;;1.60;;
15317;SDS011;7759;52.528;13.346;2022-07-23T09:39:03;1.92;;;1.48;;
15317;SDS011;7759;52.528;13.346;2022-07-23T09:41:36;2.65;;;1.58;;
15317;SDS011;7759;52.528;13.346;2022-07-23T09:44:12;4.22;;;1.70;;
15317;SDS011;7759;52.528;13.346;2022-07-23T09:46:39;3.08;;;1.75;;
15317;SDS011;7759;52.528;13.346;2022-07-23T09:49:38;3.60;;;2.08;;
15317;SDS011;7759;52.528;13.346;2022-07-23T09:51:58;3.45;;;1.50;;
15317;SDS011;7759;52.528;13.346;2022-07-23T09:54:27;1.52;;;1.40;;
15317;SDS011;7759;52.528;13.346;2022-07-23T09:56:56;1.58;;;1.45;;
15317;SDS011;7759;52.528;13.346;2022-07-23T09:59:23;2.30;;;1.60;;
15317;SDS011;7759;52.528;13.346;2022-07-23T10:01:50;2.35;;;1.33;;
15317;SDS011;7759;52.528;13.346;2022-07-23T10:04:16;6.18;;;2.20;;
15317;SDS011;7759;52.528;13.346;2022-07-23T10:06:42;2.47;;;1.80;;
15317;SDS011;7759;52.528;13.346;2022-07-23T10:09:10;4.68;;;2.30;;
15317;SDS011;7759;52.528;13.346;2022-07-23T10:11:37;2.70;;;2.10;;
15317;SDS011;7759;52.528;13.346;2022-07-23T10:14:04;1.33;;;1.23;;
15317;SDS011;7759;52.528;13.346;2022-07-23T10:16:30;2.45;;;1.70;;
15317;SDS011;7759;52.528;13.346;2022-07-23T10:18:56;3.10;;;1.65;;
15317;SDS011;7759;52.528;13.346;2022-07-23T10:22:08;4.10;;;1.90;;
15317;SDS011;7759;52.528;13.346;2022-07-23T10:27:12;3.67;;;1.50;;
15317;SDS011;7759;52.528;13.346;2022-07-23T10:30:02;3.17;;;2.03;;
15317;SDS011;7759;52.528;13.346;2022-07-23T10:34:58;3.95;;;2.30;;
15317;SDS011;7759;52.528;13.346;2022-07-23T10:37:42;2.33;;;1.52;;
15317;SDS011;7759;52.528;13.346;2022-07-23T10:40:16;2.72;;;1.50;;
15317;SDS011;7759;52.528;13.346;2022-07-23T10:42:43;3.47;;;1.42;;
15317;SDS011;7759;52.528;13.346;2022-07-23T10:45:25;2.63;;;2.10;;
15317;SDS011;7759;52.528;13.346;2022-07-23T10:47:52;6.15;;;2.25;;
15317;SDS011;7759;52.528;13.346;2022-07-23T10:58:03;2.40;;;1.80;;
15317;SDS011;7759;52.528;13.346;2022-07-23T11:00:30;2.63;;;1.58;;
15317;SDS011;7759;52.528;13.346;2022-07-23T11:03:00;2.22;;;2.03;;
15317;SDS011;7759;52.528;13.346;2022-07-23T11:10:33;2.03;;;1.67;;
15317;SDS011;7759;52.528;13.346;2022-07-23T11:16:03;3.28;;;2.30;;
15317;SDS011;7759;52.528;13.346;2022-07-23T11:31:54;2.60;;;1.60;;
15317;SDS011;7759;52.528;13.346;2022-07-23T11:34:40;1.70;;;1.25;;
15317;SDS011;7759;52.528;13.346;2022-07-23T11:37:08;1.73;;;1.60;;
15317;SDS011;7759;52.528;13.346;2022-07-23T11:39:35;3.58;;;2.38;;
15317;SDS011;7759;52.528;13.346;2022-07-23T11:42:01;3.72;;;2.30;;
15317;SDS011;7759;52.528;13.346;2022-07-23T11:44:30;4.55;;;2.00;;
15317;SDS011;7759;52.528;13.346;2022-07-23T11:46:57;2.55;;;1.90;;
15317;SDS011;7759;52.528;13.346;2022-07-23T11:49:24;4.82;;;2.35;;
15317;SDS011;7759;52.528;13.346;2022-07-23T11:54:29;2.55;;;2.03;;
15317;SDS011;7759;52.528;13.346;2022-07-23T11:56:56;3.25;;;1.70;;
15317;SDS011;7759;52.528;13.346;2022-07-23T11:59:22;2.33;;;2.00;;
15317;SDS011;7759;52.528;13.346;2022-07-23T12:02:02;4.88;;;2.53;;
15317;SDS011;7759;52.528;13.346;2022-07-23T12:04:39;4.18;;;2.55;;
15317;SDS011;7759;52.528;13.346;2022-07-23T12:07:22;3.58;;;1.98;;
15317;SDS011;7759;52.528;13.346;2022-07-23T12:09:48;3.00;;;2.20;;
15317;SDS011;7759;52.528;13.346;2022-07-23T12:12:14;2.50;;;1.80;;
15317;SDS011;7759;52.528;13.346;2022-07-23T12:14:47;2.90;;;1.83;;
15317;SDS011;7759;52.528;13.346;2022-07-23T12:17:13;3.67;;;1.65;;
15317;SDS011;7759;52.528;13.346;2022-07-23T12:19:38;2.38;;;1.65;;
15317;SDS011;7759;52.528;13.346;2022-07-23T12:22:05;4.68;;;2.20;;
15317;SDS011;7759;52.528;13.346;2022-07-23T12:24:31;3.13;;;2.15;;
15317;SDS011;7759;52.528;13.346;2022-07-23T12:27:09;1.98;;;1.50;;
15317;SDS011;7759;52.528;13.346;2022-07-23T12:29:36;2.20;;;1.77;;
15317;SDS011;7759;52.528;13.346;2022-07-23T12:32:02;5.07;;;2.05;;
15317;SDS011;7759;52.528;13.346;2022-07-23T12:34:40;1.50;;;1.40;;
15317;SDS011;7759;52.528;13.346;2022-07-23T12:37:06;2.22;;;1.60;;
15317;SDS011;7759;52.528;13.346;2022-07-23T12:39:32;2.13;;;1.63;;
15317;SDS011;7759;52.528;13.346;2022-07-23T12:41:58;1.70;;;1.60;;
15317;SDS011;7759;52.528;13.346;2022-07-23T12:44:24;2.72;;;2.00;;
15317;SDS011;7759;52.528;13.346;2022-07-23T12:46:51;2.78;;;2.33;;
15317;SDS011;7759;52.528;13.346;2022-07-23T12:49:27;2.30;;;2.10;;
15317;SDS011;7759;52.528;13.346;2022-07-23T12:51:53;3.45;;;1.70;;
15317;SDS011;7759;52.528;13.346;2022-07-23T12:54:19;2.65;;;1.70;;
15317;SDS011;7759;52.528;13.346;2022-07-23T12:56:52;2.17;;;1.70;;
15317;SDS011;7759;52.528;13.346;2022-07-23T12:59:18;3.30;;;2.35;;
15317;SDS011;7759;52.528;13.346;2022-07-23T13:01:44;5.95;;;2.30;;
15317;SDS011;7759;52.528;13.346;2022-07-23T13:04:20;2.97;;;2.00;;
15317;SDS011;7759;52.528;13.346;2022-07-23T13:06:50;2.22;;;1.90;;
15317;SDS011;7759;52.528;13.346;2022-07-23T13:09:27;2.35;;;2.15;;
15317;SDS011;7759;52.528;13.346;2022-07-23T13:11:54;3.65;;;2.05;;
15317;SDS011;7759;52.528;13.346;2022-07-23T13:14:20;6.78;;;2.58;;
15317;SDS011;7759;52.528;13.346;2022-07-23T13:16:46;3.13;;;1.90;;
15317;SDS011;7759;52.528;13.346;2022-07-23T13:19:12;2.15;;;1.95;;
15317;SDS011;7759;52.528;13.346;2022-07-23T13:21:39;3.38;;;2.08;;
15317;SDS011;7759;52.528;13.346;2022-07-23T13:24:05;4.72;;;2.17;;
15317;SDS011;7759;52.528;13.346;2022-07-23T13:26:31;3.40;;;2.13;;
15317;SDS011;7759;52.528;13.346;2022-07-23T13:28:57;3.97;;;2.17;;
15317;SDS011;7759;52.528;13.346;2022-07-23T13:31:23;2.10;;;1.90;;
15317;SDS011;7759;52.528;13.346;2022-07-23T13:33:49;2.50;;;1.80;;
15317;SDS011;7759;52.528;13.346;2022-07-23T13:36:15;4.05;;;2.15;;
15317;SDS011;7759;52.528;13.346;2022-07-23T13:38:41;2.42;;;2.00;;
15317;SDS011;7759;52.528;13.346;2022-07-23T13:41:07;2.17;;;1.90;;
15317;SDS011;7759;52.528;13.346;2022-07-23T13:43:33;7.38;;;2.00;;
15317;SDS011;7759;52.528;13.346;2022-07-23T13:45:59;2.13;;;1.77;;
15317;SDS011;7759;52.528;13.346;2022-07-23T13:48:25;4.38;;;2.83;;
15317;SDS011;7759;52.528;13.346;2022-07-23T13:50:51;4.03;;;2.50;;
15317;SDS011;7759;52.528;13.346;2022-07-23T13:53:18;2.95;;;1.98;;
15317;SDS011;7759;52.528;13.346;2022-07-23T13:55:44;3.22;;;1.98;;
15317;SDS011;7759;52.528;13.346;2022-07-23T13:58:11;5.78;;;2.45;;
15317;SDS011;7759;52.528;13.346;2022-07-23T14:00:37;4.72;;;2.00;;
15317;SDS011;7759;52.528;13.346;2022-07-23T14:03:04;13.18;;;5.45;;
15317;SDS011;7759;52.528;13.346;2022-07-23T14:05:31;2.03;;;1.83;;
15317;SDS011;7759;52.528;13.346;2022-07-23T14:07:57;2.60;;;1.67;;
15317;SDS011;7759;52.528;13.346;2022-07-23T14:10:23;2.13;;;1.73;;
15317;SDS011;7759;52.528;13.346;2022-07-23T14:12:50;1.98;;;1.60;;
15317;SDS011;7759;52.528;13.346;2022-07-23T14:15:17;2.78;;;2.35;;
15317;SDS011;7759;52.528;13.346;2022-07-23T14:17:43;1.58;;;1.48;;
15317;SDS011;7759;52.528;13.346;2022-07-23T14:20:10;1.88;;;1.70;;
15317;SDS011;7759;52.528;13.346;2022-07-23T14:22:36;6.07;;;1.90;;
15317;SDS011;7759;52.528;13.346;2022-07-23T14:25:03;2.22;;;1.80;;
15317;SDS011;7759;52.528;13.346;2022-07-23T14:27:29;3.78;;;1.73;;
15317;SDS011;7759;52.528;13.346;2022-07-23T14:29:55;1.65;;;1.45;;
15317;SDS011;7759;52.528;13.346;2022-07-23T14:32:21;2.83;;;1.67;;
15317;SDS011;7759;52.528;13.346;2022-07-23T14:34:47;3.15;;;1.70;;
15317;SDS011;7759;52.528;13.346;2022-07-23T14:37:13;2.33;;;1.70;;
15317;SDS011;7759;52.528;13.346;2022-07-23T14:39:40;2.08;;;1.60;;
15317;SDS011;7759;52.528;13.346;2022-07-23T14:42:06;2.05;;;1.85;;
15317;SDS011;7759;52.528;13.346;2022-07-23T14:44:33;1.60;;;1.50;;
15317;SDS011;7759;52.528;13.346;2022-07-23T14:46:58;2.80;;;1.48;;
15317;SDS011;7759;52.528;13.346;2022-07-23T14:49:25;4.00;;;1.70;;
15317;SDS011;7759;52.528;13.346;2022-07-23T14:51:51;2.00;;;1.35;;
15317;SDS011;7759;52.528;13.346;2022-07-23T14:54:17;1.67;;;1.58;;
15317;SDS011;7759;52.528;13.346;2022-07-23T14:56:43;2.10;;;1.40;;
15317;SDS011;7759;52.528;13.346;2022-07-23T14:59:10;2.38;;;1.70;;
15317;SDS011;7759;52.528;13.346;2022-07-23T15:01:36;1.70;;;1.30;;
15317;SDS011;7759;52.528;13.346;2022-07-23T15:04:03;5.00;;;1.83;;
15317;SDS011;7759;52.528;13.346;2022-07-23T15:06:29;2.10;;;1.50;;
15317;SDS011;7759;52.528;13.346;2022-07-23T15:08:54;2.75;;;1.60;;
15317;SDS011;7759;52.528;13.346;2022-07-23T15:11:20;1.58;;;1.48;;
15317;SDS011;7759;52.528;13.346;2022-07-23T15:13:46;1.40;;;1.30;;
15317;SDS011;7759;52.528;13.346;2022-07-23T15:16:12;2.63;;;1.17;;
15317;SDS011;7759;52.528;13.346;2022-07-23T15:18:38;2.00;;;1.55;;
15317;SDS011;7759;52.528;13.346;2022-07-23T15:21:05;1.90;;;1.30;;
15317;SDS011;7759;52.528;13.346;2022-07-23T15:23:31;2.00;;;1.25;;
15317;SDS011;7759;52.528;13.346;2022-07-23T15:25:57;1.63;;;1.52;;
15317;SDS011;7759;52.528;13.346;2022-07-23T15:28:23;1.75;;;1.30;;